sensor_id;sensor_type;location;lat;lon;timestamp;temperature;humidity
49731;DHT22;35622;52.008;5.426;2022-10-15T00:00:48;14.80;71.00
49731;DHT22;35622;52.008;5.426;2022-10-15T00:03:14;14.80;71.10
49731;DHT22;35622;52.008;5.426;2022-10-15T00:05:40;14.80;71.10
49731;DHT22;35622;52.008;5.426;2022-10-15T00:08:07;14.80;71.50
49731;DHT22;35622;52.008;5.426;2022-10-15T00:10:33;15.00;71.60
49731;DHT22;35622;52.008;5.426;2022-10-15T00:12:59;15.00;71.40
49731;DHT22;35622;52.008;5.426;2022-10-15T00:15:25;15.00;72.20
49731;DHT22;35622;52.008;5.426;2022-10-15T00:17:50;15.10;72.00
49731;DHT22;35622;52.008;5.426;2022-10-15T00:20:16;15.20;72.20
49731;DHT22;35622;52.008;5.426;2022-10-15T00:22:41;15.30;72.00
49731;DHT22;35622;52.008;5.426;2022-10-15T00:25:07;15.30;71.70
49731;DHT22;35622;52.008;5.426;2022-10-15T00:27:35;15.40;71.60
49731;DHT22;35622;52.008;5.426;2022-10-15T00:30:01;15.50;71.50
49731;DHT22;35622;52.008;5.426;2022-10-15T00:32:28;15.40;71.70
49731;DHT22;35622;52.008;5.426;2022-10-15T00:34:54;15.50;72.30
49731;DHT22;35622;52.008;5.426;2022-10-15T00:37:20;15.60;72.30
49731;DHT22;35622;52.008;5.426;2022-10-15T00:39:46;15.50;72.10
49731;DHT22;35622;52.008;5.426;2022-10-15T00:42:12;15.70;71.90
49731;DHT22;35622;52.008;5.426;2022-10-15T00:52:32;15.70;71.60
49731;DHT22;35622;52.008;5.426;2022-10-15T00:55:02;15.70;71.80
49731;DHT22;35622;52.008;5.426;2022-10-15T00:57:31;15.80;71.50
49731;DHT22;35622;52.008;5.426;2022-10-15T01:00:03;15.80;71.30
49731;DHT22;35622;52.008;5.426;2022-10-15T01:02:30;15.80;71.40
49731;DHT22;35622;52.008;5.426;2022-10-15T01:04:55;15.80;71.10
49731;DHT22;35622;52.008;5.426;2022-10-15T01:07:21;15.80;71.00
49731;DHT22;35622;52.008;5.426;2022-10-15T01:09:47;15.80;71.20
49731;DHT22;35622;52.008;5.426;2022-10-15T01:12:22;15.80;70.90
49731;DHT22;35622;52.008;5.426;2022-10-15T01:15:06;15.80;70.90
49731;DHT22;35622;52.008;5.426;2022-10-15T01:17:43;15.90;70.80
49731;DHT22;35622;52.008;5.426;2022-10-15T01:23:31;15.90;70.90
49731;DHT22;35622;52.008;5.426;2022-10-15T01:34:37;15.90;71.30
49731;DHT22;35622;52.008;5.426;2022-10-15T01:37:12;16.10;71.10
49731;DHT22;35622;52.008;5.426;2022-10-15T01:40:13;16.10;71.00
49731;DHT22;35622;52.008;5.426;2022-10-15T01:42:49;16.10;70.90
49731;DHT22;35622;52.008;5.426;2022-10-15T01:45:21;16.10;71.00
49731;DHT22;35622;52.008;5.426;2022-10-15T01:47:55;16.10;70.90
49731;DHT22;35622;52.008;5.426;2022-10-15T01:50:24;16.00;71.00
49731;DHT22;35622;52.008;5.426;2022-10-15T01:52:53;15.90;71.30
49731;DHT22;35622;52.008;5.426;2022-10-15T01:55:21;15.90;71.10
49731;DHT22;35622;52.008;5.426;2022-10-15T01:57:48;15.90;71.10
49731;DHT22;35622;52.008;5.426;2022-10-15T02:00:15;15.80;71.10
49731;DHT22;35622;52.008;5.426;2022-10-15T02:02:41;15.80;70.70
49731;DHT22;35622;52.008;5.426;2022-10-15T02:05:16;15.80;70.80
49731;DHT22;35622;52.008;5.426;2022-10-15T02:08:05;15.70;71.00
49731;DHT22;35622;52.008;5.426;2022-10-15T02:10:55;15.60;71.10
49731;DHT22;35622;52.008;5.426;2022-10-15T02:21:58;15.60;71.40
49731;DHT22;35622;52.008;5.426;2022-10-15T02:24:28;15.50;71.60
49731;DHT22;35622;52.008;5.426;2022-10-15T02:26:58;15.60;71.70
49731;DHT22;35622;52.008;5.426;2022-10-15T02:29:32;15.70;71.30
49731;DHT22;35622;52.008;5.426;2022-10-15T02:31:59;15.70;71.30
49731;DHT22;35622;52.008;5.426;2022-10-15T02:34:28;15.70;71.40
49731;DHT22;35622;52.008;5.426;2022-10-15T02:36:57;15.70;71.20
49731;DHT22;35622;52.008;5.426;2022-10-15T02:39:23;15.80;71.10
49731;DHT22;35622;52.008;5.426;2022-10-15T02:41:53;15.70;71.00
49731;DHT22;35622;52.008;5.426;2022-10-15T02:44:19;15.70;71.00
49731;DHT22;35622;52.008;5.426;2022-10-15T02:46:45;15.70;71.30
49731;DHT22;35622;52.008;5.426;2022-10-15T02:49:11;15.70;71.20
49731;DHT22;35622;52.008;5.426;2022-10-15T02:51:36;15.80;71.00
49731;DHT22;35622;52.008;5.426;2022-10-15T02:54:04;15.80;71.00
49731;DHT22;35622;52.008;5.426;2022-10-15T02:56:30;15.70;71.00
49731;DHT22;35622;52.008;5.426;2022-10-15T02:58:56;15.70;71.00
49731;DHT22;35622;52.008;5.426;2022-10-15T03:01:21;15.70;71.00
49731;DHT22;35622;52.008;5.426;2022-10-15T03:03:47;15.60;71.10
49731;DHT22;35622;52.008;5.426;2022-10-15T03:06:14;15.70;71.10
49731;DHT22;35622;52.008;5.426;2022-10-15T03:08:40;15.70;71.00
49731;DHT22;35622;52.008;5.426;2022-10-15T03:11:07;15.70;70.80
49731;DHT22;35622;52.008;5.426;2022-10-15T03:13:37;15.60;70.90
49731;DHT22;35622;52.008;5.426;2022-10-15T03:16:07;15.60;71.90
49731;DHT22;35622;52.008;5.426;2022-10-15T03:18:33;15.60;71.00
49731;DHT22;35622;52.008;5.426;2022-10-15T03:20:59;15.50;71.00
49731;DHT22;35622;52.008;5.426;2022-10-15T03:23:25;15.50;71.10
49731;DHT22;35622;52.008;5.426;2022-10-15T03:25:51;15.50;70.90
49731;DHT22;35622;52.008;5.426;2022-10-15T03:28:17;15.40;70.70
49731;DHT22;35622;52.008;5.426;2022-10-15T03:30:43;15.30;70.60
49731;DHT22;35622;52.008;5.426;2022-10-15T03:33:09;15.20;70.80
49731;DHT22;35622;52.008;5.426;2022-10-15T03:35:35;15.10;71.00
49731;DHT22;35622;52.008;5.426;2022-10-15T03:38:01;15.00;71.20
49731;DHT22;35622;52.008;5.426;2022-10-15T03:40:26;15.00;71.30
49731;DHT22;35622;52.008;5.426;2022-10-15T03:42:52;14.90;71.40
49731;DHT22;35622;52.008;5.426;2022-10-15T03:45:18;14.90;71.50
49731;DHT22;35622;52.008;5.426;2022-10-15T03:47:44;14.80;71.50
49731;DHT22;35622;52.008;5.426;2022-10-15T03:50:10;14.70;71.70
49731;DHT22;35622;52.008;5.426;2022-10-15T03:52:36;14.70;71.70
49731;DHT22;35622;52.008;5.426;2022-10-15T03:55:03;14.60;71.70
49731;DHT22;35622;52.008;5.426;2022-10-15T03:57:29;14.70;71.80
49731;DHT22;35622;52.008;5.426;2022-10-15T03:59:55;14.60;71.80
49731;DHT22;35622;52.008;5.426;2022-10-15T04:02:21;14.60;71.80
49731;DHT22;35622;52.008;5.426;2022-10-15T04:04:46;14.50;71.80
49731;DHT22;35622;52.008;5.426;2022-10-15T04:07:12;14.60;71.80
49731;DHT22;35622;52.008;5.426;2022-10-15T04:09:37;14.60;71.40
49731;DHT22;35622;52.008;5.426;2022-10-15T04:12:03;14.50;71.50
49731;DHT22;35622;52.008;5.426;2022-10-15T04:14:29;14.50;71.40
49731;DHT22;35622;52.008;5.426;2022-10-15T04:16:55;14.50;71.50
49731;DHT22;35622;52.008;5.426;2022-10-15T04:19:23;14.50;71.60
49731;DHT22;35622;52.008;5.426;2022-10-15T04:21:49;14.60;71.50
49731;DHT22;35622;52.008;5.426;2022-10-15T04:24:14;14.50;71.30
49731;DHT22;35622;52.008;5.426;2022-10-15T04:26:40;14.50;71.70
49731;DHT22;35622;52.008;5.426;2022-10-15T04:29:05;14.50;71.50
49731;DHT22;35622;52.008;5.426;2022-10-15T04:31:31;14.40;71.50
49731;DHT22;35622;52.008;5.426;2022-10-15T04:33:57;14.40;71.80
49731;DHT22;35622;52.008;5.426;2022-10-15T04:36:23;14.50;72.80
49731;DHT22;35622;52.008;5.426;2022-10-15T04:38:48;14.50;71.80
49731;DHT22;35622;52.008;5.426;2022-10-15T04:41:14;14.60;72.70
49731;DHT22;35622;52.008;5.426;2022-10-15T04:43:39;14.70;71.70
49731;DHT22;35622;52.008;5.426;2022-10-15T04:46:07;14.80;71.90
49731;DHT22;35622;52.008;5.426;2022-10-15T04:48:34;14.80;71.80
49731;DHT22;35622;52.008;5.426;2022-10-15T04:51:08;14.90;72.00
49731;DHT22;35622;52.008;5.426;2022-10-15T04:53:34;15.00;72.10
49731;DHT22;35622;52.008;5.426;2022-10-15T04:56:04;15.00;72.10
49731;DHT22;35622;52.008;5.426;2022-10-15T04:58:31;15.10;72.00
49731;DHT22;35622;52.008;5.426;2022-10-15T05:01:06;15.20;71.70
49731;DHT22;35622;52.008;5.426;2022-10-15T05:03:33;15.30;71.70
49731;DHT22;35622;52.008;5.426;2022-10-15T05:06:20;15.30;71.60
49731;DHT22;35622;52.008;5.426;2022-10-15T05:08:47;15.30;71.80
49731;DHT22;35622;52.008;5.426;2022-10-15T05:11:21;15.40;71.50
49731;DHT22;35622;52.008;5.426;2022-10-15T05:13:47;15.40;71.60
49731;DHT22;35622;52.008;5.426;2022-10-15T05:16:21;15.40;71.60
49731;DHT22;35622;52.008;5.426;2022-10-15T05:18:50;15.50;71.90
49731;DHT22;35622;52.008;5.426;2022-10-15T05:21:16;15.50;71.60
49731;DHT22;35622;52.008;5.426;2022-10-15T05:23:42;15.60;71.60
49731;DHT22;35622;52.008;5.426;2022-10-15T05:26:19;15.60;71.70
49731;DHT22;35622;52.008;5.426;2022-10-15T05:28:45;15.70;71.40
49731;DHT22;35622;52.008;5.426;2022-10-15T05:31:13;15.80;71.30
49731;DHT22;35622;52.008;5.426;2022-10-15T05:33:40;15.80;71.10
49731;DHT22;35622;52.008;5.426;2022-10-15T05:36:23;15.80;71.20
49731;DHT22;35622;52.008;5.426;2022-10-15T05:38:52;15.90;71.30
49731;DHT22;35622;52.008;5.426;2022-10-15T05:41:18;15.90;71.50
49731;DHT22;35622;52.008;5.426;2022-10-15T05:43:48;15.90;71.60
49731;DHT22;35622;52.008;5.426;2022-10-15T05:46:15;15.90;71.60
49731;DHT22;35622;52.008;5.426;2022-10-15T05:48:41;15.90;71.60
49731;DHT22;35622;52.008;5.426;2022-10-15T05:51:10;16.10;71.80
49731;DHT22;35622;52.008;5.426;2022-10-15T05:53:37;16.00;71.70
49731;DHT22;35622;52.008;5.426;2022-10-15T05:56:04;16.00;71.90
49731;DHT22;35622;52.008;5.426;2022-10-15T05:58:32;16.10;72.30
49731;DHT22;35622;52.008;5.426;2022-10-15T06:01:00;16.20;72.30
49731;DHT22;35622;52.008;5.426;2022-10-15T06:03:26;16.20;72.70
49731;DHT22;35622;52.008;5.426;2022-10-15T06:05:52;16.20;72.70
49731;DHT22;35622;52.008;5.426;2022-10-15T06:08:18;16.30;72.80
49731;DHT22;35622;52.008;5.426;2022-10-15T06:10:44;16.20;73.20
49731;DHT22;35622;52.008;5.426;2022-10-15T06:13:10;16.30;73.60
49731;DHT22;35622;52.008;5.426;2022-10-15T06:15:43;16.30;73.70
49731;DHT22;35622;52.008;5.426;2022-10-15T06:18:10;16.50;73.50
49731;DHT22;35622;52.008;5.426;2022-10-15T06:20:37;16.30;73.80
49731;DHT22;35622;52.008;5.426;2022-10-15T06:23:04;16.40;74.50
49731;DHT22;35622;52.008;5.426;2022-10-15T06:25:30;16.50;74.40
49731;DHT22;35622;52.008;5.426;2022-10-15T06:28:03;16.70;74.00
49731;DHT22;35622;52.008;5.426;2022-10-15T06:30:30;16.70;73.50
49731;DHT22;35622;52.008;5.426;2022-10-15T06:32:56;16.70;73.70
49731;DHT22;35622;52.008;5.426;2022-10-15T06:35:23;16.70;74.30
49731;DHT22;35622;52.008;5.426;2022-10-15T06:37:49;16.60;74.30
49731;DHT22;35622;52.008;5.426;2022-10-15T06:40:15;16.80;74.10
49731;DHT22;35622;52.008;5.426;2022-10-15T06:42:41;16.90;73.90
49731;DHT22;35622;52.008;5.426;2022-10-15T06:45:08;17.00;74.10
49731;DHT22;35622;52.008;5.426;2022-10-15T06:47:35;17.10;73.70
49731;DHT22;35622;52.008;5.426;2022-10-15T06:50:01;16.90;73.70
49731;DHT22;35622;52.008;5.426;2022-10-15T06:52:28;16.90;74.20
49731;DHT22;35622;52.008;5.426;2022-10-15T06:54:54;17.10;74.40
49731;DHT22;35622;52.008;5.426;2022-10-15T06:57:19;17.20;74.10
49731;DHT22;35622;52.008;5.426;2022-10-15T06:59:45;17.40;73.50
49731;DHT22;35622;52.008;5.426;2022-10-15T07:02:11;17.50;73.50
49731;DHT22;35622;52.008;5.426;2022-10-15T07:04:38;17.60;73.10
49731;DHT22;35622;52.008;5.426;2022-10-15T07:07:04;17.60;72.90
49731;DHT22;35622;52.008;5.426;2022-10-15T07:09:30;17.60;73.40
49731;DHT22;35622;52.008;5.426;2022-10-15T07:11:55;17.80;73.50
49731;DHT22;35622;52.008;5.426;2022-10-15T07:14:21;17.80;73.20
49731;DHT22;35622;52.008;5.426;2022-10-15T07:16:47;17.90;73.30
49731;DHT22;35622;52.008;5.426;2022-10-15T07:19:13;17.90;72.80
49731;DHT22;35622;52.008;5.426;2022-10-15T07:21:38;17.90;72.90
49731;DHT22;35622;52.008;5.426;2022-10-15T07:24:04;18.00;72.60
49731;DHT22;35622;52.008;5.426;2022-10-15T07:26:30;17.80;72.30
49731;DHT22;35622;52.008;5.426;2022-10-15T07:28:56;17.90;72.60
49731;DHT22;35622;52.008;5.426;2022-10-15T07:31:22;17.80;72.00
49731;DHT22;35622;52.008;5.426;2022-10-15T07:33:47;17.70;72.40
49731;DHT22;35622;52.008;5.426;2022-10-15T07:36:13;17.80;72.80
49731;DHT22;35622;52.008;5.426;2022-10-15T07:38:39;17.50;73.30
49731;DHT22;35622;52.008;5.426;2022-10-15T07:41:05;17.60;74.00
49731;DHT22;35622;52.008;5.426;2022-10-15T07:43:32;17.70;73.90
49731;DHT22;35622;52.008;5.426;2022-10-15T07:45:58;17.80;74.00
49731;DHT22;35622;52.008;5.426;2022-10-15T07:48:24;17.80;73.50
49731;DHT22;35622;52.008;5.426;2022-10-15T07:50:54;17.90;74.00
49731;DHT22;35622;52.008;5.426;2022-10-15T07:53:20;18.10;73.80
49731;DHT22;35622;52.008;5.426;2022-10-15T07:55:45;18.20;73.50
49731;DHT22;35622;52.008;5.426;2022-10-15T07:58:11;18.30;73.10
49731;DHT22;35622;52.008;5.426;2022-10-15T08:00:36;18.50;73.00
49731;DHT22;35622;52.008;5.426;2022-10-15T08:03:02;18.70;72.90
49731;DHT22;35622;52.008;5.426;2022-10-15T08:05:28;18.80;72.80
49731;DHT22;35622;52.008;5.426;2022-10-15T08:07:53;18.80;72.40
49731;DHT22;35622;52.008;5.426;2022-10-15T08:10:19;18.70;72.30
49731;DHT22;35622;52.008;5.426;2022-10-15T08:12:44;18.60;71.60
49731;DHT22;35622;52.008;5.426;2022-10-15T08:15:10;18.50;72.10
49731;DHT22;35622;52.008;5.426;2022-10-15T08:17:35;18.60;72.10
49731;DHT22;35622;52.008;5.426;2022-10-15T08:20:01;18.80;72.20
49731;DHT22;35622;52.008;5.426;2022-10-15T08:22:26;18.60;71.10
49731;DHT22;35622;52.008;5.426;2022-10-15T08:24:52;18.70;72.00
49731;DHT22;35622;52.008;5.426;2022-10-15T08:27:18;18.90;71.70
49731;DHT22;35622;52.008;5.426;2022-10-15T08:29:43;19.00;71.50
49731;DHT22;35622;52.008;5.426;2022-10-15T08:32:09;19.10;71.00
49731;DHT22;35622;52.008;5.426;2022-10-15T08:34:36;19.40;70.80
49731;DHT22;35622;52.008;5.426;2022-10-15T08:37:02;19.60;70.50
49731;DHT22;35622;52.008;5.426;2022-10-15T08:39:27;19.60;69.70
49731;DHT22;35622;52.008;5.426;2022-10-15T08:42:02;19.80;68.80
49731;DHT22;35622;52.008;5.426;2022-10-15T08:44:41;19.60;68.20
49731;DHT22;35622;52.008;5.426;2022-10-15T08:47:31;19.80;68.50
49731;DHT22;35622;52.008;5.426;2022-10-15T08:50:02;20.20;67.90
49731;DHT22;35622;52.008;5.426;2022-10-15T08:52:47;20.50;66.20
49731;DHT22;35622;52.008;5.426;2022-10-15T08:55:18;19.80;65.10
49731;DHT22;35622;52.008;5.426;2022-10-15T09:00:39;20.10;65.80
49731;DHT22;35622;52.008;5.426;2022-10-15T09:13:51;20.00;65.00
49731;DHT22;35622;52.008;5.426;2022-10-15T09:16:20;20.10;65.50
49731;DHT22;35622;52.008;5.426;2022-10-15T09:18:49;19.90;66.30
49731;DHT22;35622;52.008;5.426;2022-10-15T09:21:17;20.10;66.10
49731;DHT22;35622;52.008;5.426;2022-10-15T09:23:43;20.10;65.60
49731;DHT22;35622;52.008;5.426;2022-10-15T09:26:19;20.40;65.10
49731;DHT22;35622;52.008;5.426;2022-10-15T09:29:01;20.40;65.10
49731;DHT22;35622;52.008;5.426;2022-10-15T09:31:33;20.40;64.70
49731;DHT22;35622;52.008;5.426;2022-10-15T09:34:13;21.00;64.70
49731;DHT22;35622;52.008;5.426;2022-10-15T09:36:50;20.40;64.20
49731;DHT22;35622;52.008;5.426;2022-10-15T09:44:21;20.90;63.50
49731;DHT22;35622;52.008;5.426;2022-10-15T09:46:49;21.10;63.00
49731;DHT22;35622;52.008;5.426;2022-10-15T09:49:17;21.30;61.70
49731;DHT22;35622;52.008;5.426;2022-10-15T09:55:06;21.60;61.60
49731;DHT22;35622;52.008;5.426;2022-10-15T09:57:25;21.30;60.10
49731;DHT22;35622;52.008;5.426;2022-10-15T09:59:53;21.10;61.40
49731;DHT22;35622;52.008;5.426;2022-10-15T10:02:22;21.10;61.20
49731;DHT22;35622;52.008;5.426;2022-10-15T10:04:48;21.00;61.10
49731;DHT22;35622;52.008;5.426;2022-10-15T10:07:28;20.80;62.60
49731;DHT22;35622;52.008;5.426;2022-10-15T10:09:56;20.80;63.30
49731;DHT22;35622;52.008;5.426;2022-10-15T10:12:43;20.90;63.20
49731;DHT22;35622;52.008;5.426;2022-10-15T10:15:34;20.50;63.50
49731;DHT22;35622;52.008;5.426;2022-10-15T10:18:01;20.40;64.20
49731;DHT22;35622;52.008;5.426;2022-10-15T10:20:32;20.30;64.50
49731;DHT22;35622;52.008;5.426;2022-10-15T10:23:18;20.30;65.10
49731;DHT22;35622;52.008;5.426;2022-10-15T10:25:45;20.30;65.00
49731;DHT22;35622;52.008;5.426;2022-10-15T10:36:19;20.20;66.60
49731;DHT22;35622;52.008;5.426;2022-10-15T10:38:55;20.30;66.60
49731;DHT22;35622;52.008;5.426;2022-10-15T10:41:22;20.10;67.20
49731;DHT22;35622;52.008;5.426;2022-10-15T10:43:54;20.20;67.00
49731;DHT22;35622;52.008;5.426;2022-10-15T10:46:21;20.30;66.90
49731;DHT22;35622;52.008;5.426;2022-10-15T10:48:50;20.30;67.10
49731;DHT22;35622;52.008;5.426;2022-10-15T10:54:04;20.10;67.10
49731;DHT22;35622;52.008;5.426;2022-10-15T10:56:42;19.90;67.40
49731;DHT22;35622;52.008;5.426;2022-10-15T10:59:18;19.80;68.60
49731;DHT22;35622;52.008;5.426;2022-10-15T11:01:45;19.60;69.60
49731;DHT22;35622;52.008;5.426;2022-10-15T11:04:25;19.80;69.90
49731;DHT22;35622;52.008;5.426;2022-10-15T11:12:02;19.50;71.00
49731;DHT22;35622;52.008;5.426;2022-10-15T11:14:59;19.60;71.30
49731;DHT22;35622;52.008;5.426;2022-10-15T11:18:40;19.70;71.10
49731;DHT22;35622;52.008;5.426;2022-10-15T11:20:52;19.60;71.90
49731;DHT22;35622;52.008;5.426;2022-10-15T11:31:00;19.30;73.30
49731;DHT22;35622;52.008;5.426;2022-10-15T11:36:42;19.60;72.40
49731;DHT22;35622;52.008;5.426;2022-10-15T11:42:20;19.70;72.60
49731;DHT22;35622;52.008;5.426;2022-10-15T11:45:15;19.80;72.20
49731;DHT22;35622;52.008;5.426;2022-10-15T11:47:52;19.90;72.10
49731;DHT22;35622;52.008;5.426;2022-10-15T11:50:34;19.80;72.30
49731;DHT22;35622;52.008;5.426;2022-10-15T11:56:12;19.90;71.90
49731;DHT22;35622;52.008;5.426;2022-10-15T11:58:46;19.90;72.20
49731;DHT22;35622;52.008;5.426;2022-10-15T12:01:48;20.00;72.00
49731;DHT22;35622;52.008;5.426;2022-10-15T12:04:23;20.10;71.90
49731;DHT22;35622;52.008;5.426;2022-10-15T12:06:55;20.00;72.40
49731;DHT22;35622;52.008;5.426;2022-10-15T12:09:26;20.00;72.50
49731;DHT22;35622;52.008;5.426;2022-10-15T12:17:35;20.40;71.80
49731;DHT22;35622;52.008;5.426;2022-10-15T12:20:11;20.20;72.50
49731;DHT22;35622;52.008;5.426;2022-10-15T12:22:42;20.40;73.00
49731;DHT22;35622;52.008;5.426;2022-10-15T12:28:16;20.50;72.80
49731;DHT22;35622;52.008;5.426;2022-10-15T12:30:53;20.60;72.50
49731;DHT22;35622;52.008;5.426;2022-10-15T12:36:04;20.50;73.20
49731;DHT22;35622;52.008;5.426;2022-10-15T12:38:39;20.70;73.00
49731;DHT22;35622;52.008;5.426;2022-10-15T12:41:10;20.90;72.90
49731;DHT22;35622;52.008;5.426;2022-10-15T12:43:52;21.10;71.80
49731;DHT22;35622;52.008;5.426;2022-10-15T12:46:35;21.10;71.60
49731;DHT22;35622;52.008;5.426;2022-10-15T12:51:50;21.20;70.50
49731;DHT22;35622;52.008;5.426;2022-10-15T12:56:57;21.40;70.70
49731;DHT22;35622;52.008;5.426;2022-10-15T13:02:43;22.00;70.70
49731;DHT22;35622;52.008;5.426;2022-10-15T13:07:51;22.60;68.20
49731;DHT22;35622;52.008;5.426;2022-10-15T13:10:26;22.50;67.60
49731;DHT22;35622;52.008;5.426;2022-10-15T13:12:55;22.60;67.30
49731;DHT22;35622;52.008;5.426;2022-10-15T13:15:25;22.40;66.70
49731;DHT22;35622;52.008;5.426;2022-10-15T13:17:53;22.50;66.80
49731;DHT22;35622;52.008;5.426;2022-10-15T13:20:30;22.60;66.50
49731;DHT22;35622;52.008;5.426;2022-10-15T13:23:09;22.60;65.70
49731;DHT22;35622;52.008;5.426;2022-10-15T13:25:40;22.30;66.10
49731;DHT22;35622;52.008;5.426;2022-10-15T13:28:45;22.20;66.40
49731;DHT22;35622;52.008;5.426;2022-10-15T13:31:22;22.00;66.70
49731;DHT22;35622;52.008;5.426;2022-10-15T13:33:51;21.80;67.00
49731;DHT22;35622;52.008;5.426;2022-10-15T13:36:25;21.70;67.70
49731;DHT22;35622;52.008;5.426;2022-10-15T13:38:58;21.60;67.60
49731;DHT22;35622;52.008;5.426;2022-10-15T13:41:30;21.70;68.50
49731;DHT22;35622;52.008;5.426;2022-10-15T13:43:57;21.60;68.80
49731;DHT22;35622;52.008;5.426;2022-10-15T13:46:45;21.70;68.70
49731;DHT22;35622;52.008;5.426;2022-10-15T13:49:12;21.70;68.20
49731;DHT22;35622;52.008;5.426;2022-10-15T13:51:49;21.40;69.20
49731;DHT22;35622;52.008;5.426;2022-10-15T13:54:27;21.40;69.30
49731;DHT22;35622;52.008;5.426;2022-10-15T13:56:59;21.50;69.50
49731;DHT22;35622;52.008;5.426;2022-10-15T13:59:27;21.60;68.80
49731;DHT22;35622;52.008;5.426;2022-10-15T14:01:56;21.70;68.40
49731;DHT22;35622;52.008;5.426;2022-10-15T14:04:30;21.70;68.00
49731;DHT22;35622;52.008;5.426;2022-10-15T14:07:01;21.70;68.50
49731;DHT22;35622;52.008;5.426;2022-10-15T14:09:31;21.70;68.20
49731;DHT22;35622;52.008;5.426;2022-10-15T14:11:57;21.70;69.10
49731;DHT22;35622;52.008;5.426;2022-10-15T14:14:34;21.80;68.90
49731;DHT22;35622;52.008;5.426;2022-10-15T14:17:12;22.00;68.20
49731;DHT22;35622;52.008;5.426;2022-10-15T14:19:48;21.90;67.80
49731;DHT22;35622;52.008;5.426;2022-10-15T14:22:17;22.00;67.90
49731;DHT22;35622;52.008;5.426;2022-10-15T14:24:43;22.10;67.50
49731;DHT22;35622;52.008;5.426;2022-10-15T14:27:17;22.00;67.00
49731;DHT22;35622;52.008;5.426;2022-10-15T14:30:11;21.90;66.30
49731;DHT22;35622;52.008;5.426;2022-10-15T14:32:45;22.00;66.50
49731;DHT22;35622;52.008;5.426;2022-10-15T14:35:44;21.90;66.90
49731;DHT22;35622;52.008;5.426;2022-10-15T14:40:35;21.50;66.40
49731;DHT22;35622;52.008;5.426;2022-10-15T14:43:06;21.60;67.20
49731;DHT22;35622;52.008;5.426;2022-10-15T14:45:56;21.50;66.70
49731;DHT22;35622;52.008;5.426;2022-10-15T14:48:26;21.50;66.80
49731;DHT22;35622;52.008;5.426;2022-10-15T14:50:52;21.40;66.30
49731;DHT22;35622;52.008;5.426;2022-10-15T14:53:25;21.40;66.30
49731;DHT22;35622;52.008;5.426;2022-10-15T14:55:56;21.10;66.80
49731;DHT22;35622;52.008;5.426;2022-10-15T14:58:23;21.10;67.10
49731;DHT22;35622;52.008;5.426;2022-10-15T15:01:04;21.00;67.40
49731;DHT22;35622;52.008;5.426;2022-10-15T15:03:47;20.80;66.80
49731;DHT22;35622;52.008;5.426;2022-10-15T15:06:13;20.50;66.40
49731;DHT22;35622;52.008;5.426;2022-10-15T15:08:39;20.40;67.00
49731;DHT22;35622;52.008;5.426;2022-10-15T15:11:06;20.50;67.20
49731;DHT22;35622;52.008;5.426;2022-10-15T15:13:41;20.50;66.60
49731;DHT22;35622;52.008;5.426;2022-10-15T15:16:13;20.40;66.10
49731;DHT22;35622;52.008;5.426;2022-10-15T15:18:39;20.40;67.00
49731;DHT22;35622;52.008;5.426;2022-10-15T15:21:12;20.40;66.20
49731;DHT22;35622;52.008;5.426;2022-10-15T15:23:38;20.40;66.50
49731;DHT22;35622;52.008;5.426;2022-10-15T15:26:03;20.30;66.10
49731;DHT22;35622;52.008;5.426;2022-10-15T15:28:29;20.30;66.40
49731;DHT22;35622;52.008;5.426;2022-10-15T15:30:59;20.10;66.50
49731;DHT22;35622;52.008;5.426;2022-10-15T15:33:26;20.10;65.90
49731;DHT22;35622;52.008;5.426;2022-10-15T15:36:00;19.90;66.80
49731;DHT22;35622;52.008;5.426;2022-10-15T15:38:26;19.70;67.70
49731;DHT22;35622;52.008;5.426;2022-10-15T15:41:02;19.60;68.40
49731;DHT22;35622;52.008;5.426;2022-10-15T15:43:28;19.70;68.40
49731;DHT22;35622;52.008;5.426;2022-10-15T15:45:54;19.60;68.50
49731;DHT22;35622;52.008;5.426;2022-10-15T15:48:19;19.50;68.50
49731;DHT22;35622;52.008;5.426;2022-10-15T15:50:45;19.50;68.70
49731;DHT22;35622;52.008;5.426;2022-10-15T15:53:11;19.30;69.20
49731;DHT22;35622;52.008;5.426;2022-10-15T15:55:37;19.30;69.10
49731;DHT22;35622;52.008;5.426;2022-10-15T15:58:03;19.20;69.50
49731;DHT22;35622;52.008;5.426;2022-10-15T16:00:28;19.20;69.30
49731;DHT22;35622;52.008;5.426;2022-10-15T16:02:54;19.20;69.10
49731;DHT22;35622;52.008;5.426;2022-10-15T16:05:20;19.20;68.90
49731;DHT22;35622;52.008;5.426;2022-10-15T16:07:47;19.10;68.70
49731;DHT22;35622;52.008;5.426;2022-10-15T16:10:13;19.00;69.20
49731;DHT22;35622;52.008;5.426;2022-10-15T16:12:39;18.90;69.40
49731;DHT22;35622;52.008;5.426;2022-10-15T16:15:05;18.90;69.20
49731;DHT22;35622;52.008;5.426;2022-10-15T16:17:32;18.80;69.10
49731;DHT22;35622;52.008;5.426;2022-10-15T16:19:57;18.70;69.20
49731;DHT22;35622;52.008;5.426;2022-10-15T16:22:23;18.70;69.40
49731;DHT22;35622;52.008;5.426;2022-10-15T16:24:48;18.50;69.30
49731;DHT22;35622;52.008;5.426;2022-10-15T16:27:14;18.30;70.10
49731;DHT22;35622;52.008;5.426;2022-10-15T16:29:39;18.30;70.10
49731;DHT22;35622;52.008;5.426;2022-10-15T16:32:05;18.20;69.90
49731;DHT22;35622;52.008;5.426;2022-10-15T16:34:30;18.10;69.80
49731;DHT22;35622;52.008;5.426;2022-10-15T16:36:56;18.10;70.00
49731;DHT22;35622;52.008;5.426;2022-10-15T16:39:22;18.00;70.00
49731;DHT22;35622;52.008;5.426;2022-10-15T16:41:47;17.90;69.90
49731;DHT22;35622;52.008;5.426;2022-10-15T16:44:13;17.80;70.00
49731;DHT22;35622;52.008;5.426;2022-10-15T16:46:38;17.70;70.30
49731;DHT22;35622;52.008;5.426;2022-10-15T16:49:04;17.60;70.30
49731;DHT22;35622;52.008;5.426;2022-10-15T16:51:30;17.60;70.40
49731;DHT22;35622;52.008;5.426;2022-10-15T16:53:57;17.40;70.30
49731;DHT22;35622;52.008;5.426;2022-10-15T16:56:25;17.30;70.60
49731;DHT22;35622;52.008;5.426;2022-10-15T16:58:52;17.30;70.70
49731;DHT22;35622;52.008;5.426;2022-10-15T17:01:20;17.20;70.70
49731;DHT22;35622;52.008;5.426;2022-10-15T17:03:47;17.10;70.90
49731;DHT22;35622;52.008;5.426;2022-10-15T17:06:17;17.00;71.00
49731;DHT22;35622;52.008;5.426;2022-10-15T17:08:57;17.00;70.90
49731;DHT22;35622;52.008;5.426;2022-10-15T17:11:28;16.90;71.10
49731;DHT22;35622;52.008;5.426;2022-10-15T17:13:57;16.90;71.10
49731;DHT22;35622;52.008;5.426;2022-10-15T17:16:31;16.80;71.30
49731;DHT22;35622;52.008;5.426;2022-10-15T17:18:57;16.80;71.10
49731;DHT22;35622;52.008;5.426;2022-10-15T17:21:25;16.80;71.10
49731;DHT22;35622;52.008;5.426;2022-10-15T17:23:57;16.70;71.10
49731;DHT22;35622;52.008;5.426;2022-10-15T17:26:26;16.70;71.20
49731;DHT22;35622;52.008;5.426;2022-10-15T17:28:52;16.60;71.20
49731;DHT22;35622;52.008;5.426;2022-10-15T17:31:23;16.60;71.40
49731;DHT22;35622;52.008;5.426;2022-10-15T17:34:00;16.60;71.30